Terminal Aerodrome Forecast
Issued by NWS

Home | Current Version | Previous Version | Text Only | Print | Product List | Glossary On
Versions: 1 2 3 4 5 6 7 8 9 10 11 12 13 14 15 16
000
FTUS46 KOTX 272320
TAFPUW
TAF
KPUW 272320Z 2800/2824 27011G21KT P6SM SCT050 BKN130
     FM280300 24009KT P6SM SCT050 BKN130
     FM280800 22007KT P6SM SCT050 SCT150
     FM281200 24007KT P6SM FEW005 SCT120 BKN250
     FM281700 25009KT P6SM SCT040 SCT200=

USA.gov is the U.S. government's official web portal to all federal, state and local government web resources and services.